Englewood, Florida
Current Conditions -  °F | °C
As of 4:35 PM on Saturday 22 Nov 2014 (Local Time) from KVNC Reporting Station
Overcast Overcast  
Wind Chill: 75°   Ceiling: 2600
Heat Index: 75°   Visibility: 10mi
Dew Point: 66°   Wind: 14mph
Humidity: 73%   Direction: 80°E
Pressure: 30.07"   Gusts: NA
Location:  26.95°N, 82.35°W
Report Text: KVNC 222135Z AUTO 08012KT 10SM OVC026 24/19 A3007 RMK AO2 TSNO
Loading
Personal Weather Stations






























Interactive Weather Map New forecast layout! Learn more

10-Day Weather Forecast

Advertisements
Track Severe Weather on mobile